Terminal Aerodrome Forecast
Issued by NWS Albuquerque, NM

Home | Current Version | Previous Version | Text Only | Print | Product List | Glossary On
Versions: 1 2 3 4 5 6 7 8 9 10 11 12 13 14 15 16
658
FTUS45 KABQ 301720
TAFABQ
TAF
KABQ 301720Z 3018/0118 25005KT P6SM FEW050
     FM302300 27008KT P6SM VCTS SCT070CB
     FM010200 33007KT P6SM VCSH OVC080
     FM010500 14005KT P6SM BKN100
     FM011300 35004KT P6SM SCT120=

USA.gov is the U.S. government's official web portal to all federal, state and local government web resources and services.